Time,TemperatureF,DewpointF,PressureIn,WindDirection,WindDirectionDegrees,WindSpeedMPH,WindSpeedGustMPH,Humidity,HourlyPrecipIn,Conditions,Clouds,dailyrainin,SoftwareType,DateUTC
2013-08-31 00:10:00,84.9,73.0,29.15,SW,214,3.0,7.0,67,0.00,,,0.00,weatherlink.com 1.10,2013-08-31 05:10:00,
2013-08-31 00:25:00,84.4,73.0,29.15,SW,217,2.0,7.0,69,0.00,,,0.00,weatherlink.com 1.10,2013-08-31 05:25:00,
2013-08-31 00:41:00,84.1,73.0,29.15,West,262,4.0,7.0,70,0.00,,,0.00,weatherlink.com 1.10,2013-08-31 05:41:00,
2013-08-31 00:56:00,83.7,73.0,29.15,WNW,288,2.0,7.0,71,0.00,,,0.00,weatherlink.com 1.10,2013-08-31 05:56:00,
2013-08-31 01:11:00,83.5,73.0,29.15,SW,228,1.0,7.0,71,0.00,,,0.00,weatherlink.com 1.10,2013-08-31 06:11:00,
2013-08-31 01:26:00,83.1,73.0,29.15,SW,219,2.0,5.0,72,0.00,,,0.00,weatherlink.com 1.10,2013-08-31 06:26:00,
2013-08-31 01:41:00,82.7,73.0,29.15,SW,218,1.0,4.0,73,0.00,,,0.00,weatherlink.com 1.10,2013-08-31 06:41:00,
2013-08-31 01:56:00,82.2,74.0,29.15,SW,232,3.0,4.0,75,0.00,,,0.00,weatherlink.com 1.10,2013-08-31 06:56:00,
2013-08-31 02:11:00,82.1,74.0,29.15,SW,224,5.0,8.0,76,0.00,,,0.00,weatherlink.com 1.10,2013-08-31 07:11:00,
2013-08-31 02:26:00,82.1,74.0,29.15,SW,232,2.0,7.0,76,0.00,,,0.00,weatherlink.com 1.10,2013-08-31 07:26:00,
2013-08-31 02:41:00,81.9,74.0,29.15,SW,226,5.0,8.0,76,0.00,,,0.00,weatherlink.com 1.10,2013-08-31 07:41:00,
2013-08-31 02:56:00,81.8,74.0,29.15,WSW,243,7.0,8.0,76,0.00,,,0.00,weatherlink.com 1.10,2013-08-31 07:56:00,
2013-08-31 03:11:00,81.6,73.0,29.14,SW,228,5.0,9.0,76,0.00,,,0.00,weatherlink.com 1.10,2013-08-31 08:11:00,
2013-08-31 03:26:00,81.7,73.0,29.14,SSW,200,6.0,10.0,76,0.00,,,0.00,weatherlink.com 1.10,2013-08-31 08:26:00,
2013-08-31 03:41:00,81.5,73.0,29.14,SW,228,5.0,8.0,76,0.00,,,0.00,weatherlink.com 1.10,2013-08-31 08:41:00,
2013-08-31 03:56:00,81.4,73.0,29.14,SSW,205,4.0,10.0,76,0.00,,,0.00,weatherlink.com 1.10,2013-08-31 08:56:00,
2013-08-31 04:11:00,81.4,73.0,29.15,SW,224,3.0,8.0,76,0.00,,,0.00,weatherlink.com 1.10,2013-08-31 09:11:00,
2013-08-31 04:26:00,81.2,73.0,29.15,SW,231,5.0,6.0,76,0.00,,,0.00,weatherlink.com 1.10,2013-08-31 09:26:00,
2013-08-31 04:41:00,81.0,73.0,29.14,SSW,212,3.0,6.0,77,0.00,,,0.00,weatherlink.com 1.10,2013-08-31 09:41:00,
2013-08-31 04:56:00,80.6,73.0,29.14,WSW,257,3.0,7.0,77,0.00,,,0.00,weatherlink.com 1.10,2013-08-31 09:56:00,
2013-08-31 05:11:00,80.5,73.0,29.13,South,190,2.0,8.0,77,0.00,,,0.00,weatherlink.com 1.10,2013-08-31 10:11:00,
2013-08-31 05:26:00,80.3,73.0,29.13,SW,219,1.0,9.0,77,0.00,,,0.00,weatherlink.com 1.10,2013-08-31 10:26:00,
2013-08-31 05:41:00,80.2,73.0,29.14,SW,221,7.0,8.0,78,0.00,,,0.00,weatherlink.com 1.10,2013-08-31 10:41:00,
2013-08-31 05:56:00,79.8,72.0,29.14,SSW,208,3.0,5.0,78,0.00,,,0.00,weatherlink.com 1.10,2013-08-31 10:56:00,
2013-08-31 06:11:00,79.5,73.0,29.14,SW,214,2.0,6.0,79,0.00,,,0.00,weatherlink.com 1.10,2013-08-31 11:11:00,
2013-08-31 06:26:00,79.1,72.0,29.14,WSW,243,3.0,5.0,80,0.00,,,0.00,weatherlink.com 1.10,2013-08-31 11:26:00,
2013-08-31 06:41:00,79.0,72.0,29.14,SSW,197,4.0,6.0,80,0.00,,,0.00,weatherlink.com 1.10,2013-08-31 11:41:00,
2013-08-31 06:56:00,79.3,72.0,29.14,SSW,207,2.0,4.0,79,0.00,,,0.00,weatherlink.com 1.10,2013-08-31 11:56:00,
2013-08-31 07:11:00,79.9,73.0,29.15,SW,229,1.0,5.0,78,0.00,,,0.00,weatherlink.com 1.10,2013-08-31 12:11:00,
2013-08-31 07:26:00,80.7,73.0,29.15,SW,219,1.0,4.0,77,0.00,,,0.00,weatherlink.com 1.10,2013-08-31 12:26:00,
2013-08-31 07:41:00,81.4,73.0,29.15,SSW,208,1.0,6.0,75,0.00,,,0.00,weatherlink.com 1.10,2013-08-31 12:41:00,
2013-08-31 07:56:00,82.0,73.0,29.16,SW,224,2.0,10.0,74,0.00,,,0.00,weatherlink.com 1.10,2013-08-31 12:56:00,
2013-08-31 08:11:00,83.0,73.0,29.16,West,276,2.0,5.0,72,0.00,,,0.00,weatherlink.com 1.10,2013-08-31 13:11:00,
2013-08-31 08:26:00,84.1,73.0,29.16,WSW,252,3.0,6.0,69,0.00,,,0.00,weatherlink.com 1.10,2013-08-31 13:26:00,
2013-08-31 08:41:00,85.2,73.0,29.16,West,271,3.0,6.0,67,0.00,,,0.00,weatherlink.com 1.10,2013-08-31 13:41:00,
2013-08-31 08:56:00,86.5,73.0,29.16,SW,226,3.0,8.0,64,0.00,,,0.00,weatherlink.com 1.10,2013-08-31 13:56:00,
2013-08-31 09:11:00,87.2,73.0,29.16,WSW,245,3.0,11.0,63,0.00,,,0.00,weatherlink.com 1.10,2013-08-31 14:11:00,
2013-08-31 09:26:00,88.3,73.0,29.16,West,272,8.0,13.0,60,0.00,,,0.00,weatherlink.com 1.10,2013-08-31 14:26:00,
2013-08-31 09:41:00,89.1,73.0,29.16,SSW,195,7.0,12.0,59,0.00,,,0.00,weatherlink.com 1.10,2013-08-31 14:41:00,
2013-08-31 09:56:00,89.8,73.0,29.16,WSW,248,8.0,12.0,57,0.00,,,0.00,weatherlink.com 1.10,2013-08-31 14:56:00,
2013-08-31 10:11:00,90.2,73.0,29.16,WSW,240,9.0,16.0,57,0.00,,,0.00,weatherlink.com 1.10,2013-08-31 15:11:00,
2013-08-31 10:27:00,90.8,72.0,29.15,SW,236,10.0,13.0,55,0.00,,,0.00,weatherlink.com 1.10,2013-08-31 15:27:00,
2013-08-31 10:42:00,91.5,72.0,29.15,WSW,252,6.0,14.0,53,0.00,,,0.00,weatherlink.com 1.10,2013-08-31 15:42:00,
2013-08-31 10:57:00,92.6,73.0,29.14,SSW,211,7.0,13.0,53,0.00,,,0.00,weatherlink.com 1.10,2013-08-31 15:57:00,
2013-08-31 11:12:00,93.7,73.0,29.14,SW,224,8.0,10.0,51,0.00,,,0.00,weatherlink.com 1.10,2013-08-31 16:12:00,
2013-08-31 11:27:00,93.9,73.0,29.14,WNW,293,5.0,13.0,50,0.00,,,0.00,weatherlink.com 1.10,2013-08-31 16:27:00,
2013-08-31 11:42:00,94.8,73.0,29.12,WSW,240,6.0,11.0,49,0.00,,,0.00,weatherlink.com 1.10,2013-08-31 16:42:00,
2013-08-31 11:57:00,94.9,73.0,29.12,SW,225,8.0,12.0,49,0.00,,,0.00,weatherlink.com 1.10,2013-08-31 16:57:00,
2013-08-31 12:12:00,96.1,73.0,29.12,WNW,290,5.0,13.0,47,0.00,,,0.00,weatherlink.com 1.10,2013-08-31 17:12:00,
2013-08-31 12:27:00,96.2,73.0,29.12,WSW,245,9.0,13.0,47,0.00,,,0.00,weatherlink.com 1.10,2013-08-31 17:27:00,
2013-08-31 12:42:00,97.0,72.0,29.11,West,280,11.0,11.0,45,0.00,,,0.00,weatherlink.com 1.10,2013-08-31 17:42:00,
2013-08-31 12:57:00,97.6,72.0,29.11,West,271,3.0,13.0,44,0.00,,,0.00,weatherlink.com 1.10,2013-08-31 17:57:00,
2013-08-31 13:12:00,98.1,71.0,29.11,WSW,238,4.0,12.0,42,0.00,,,0.00,weatherlink.com 1.10,2013-08-31 18:12:00,
2013-08-31 13:27:00,98.1,71.0,29.11,West,262,4.0,13.0,41,0.00,,,0.00,weatherlink.com 1.10,2013-08-31 18:27:00,
2013-08-31 13:42:00,99.2,69.0,29.10,West,262,7.0,12.0,37,0.00,,,0.00,weatherlink.com 1.10,2013-08-31 18:42:00,
2013-08-31 13:57:00,99.7,68.0,29.10,NE,36,7.0,13.0,36,0.00,,,0.00,weatherlink.com 1.10,2013-08-31 18:57:00,
2013-08-31 14:12:00,100.3,69.0,29.09,WSW,252,4.0,13.0,36,0.00,,,0.00,weatherlink.com 1.10,2013-08-31 19:12:00,
2013-08-31 14:27:00,100.9,67.0,29.08,West,264,10.0,10.0,33,0.00,,,0.00,weatherlink.com 1.10,2013-08-31 19:27:00,
2013-08-31 14:42:00,100.5,67.0,29.07,West,280,6.0,12.0,34,0.00,,,0.00,weatherlink.com 1.10,2013-08-31 19:42:00,
2013-08-31 14:57:00,100.6,67.0,29.07,SW,236,10.0,12.0,33,0.00,,,0.00,weatherlink.com 1.10,2013-08-31 19:57:00,
2013-08-31 15:12:00,101.8,67.0,29.07,West,263,9.0,11.0,32,0.00,,,0.00,weatherlink.com 1.10,2013-08-31 20:12:00,
2013-08-31 15:27:00,101.2,69.0,29.06,SW,215,4.0,13.0,35,0.00,,,0.00,weatherlink.com 1.10,2013-08-31 20:27:00,
2013-08-31 15:42:00,100.8,69.0,29.06,SSW,212,9.0,12.0,36,0.00,,,0.00,weatherlink.com 1.10,2013-08-31 20:42:00,
2013-08-31 15:57:00,101.7,70.0,29.05,NNW,333,8.0,15.0,36,0.00,,,0.00,weatherlink.com 1.10,2013-08-31 20:57:00,
2013-08-31 16:12:00,101.1,70.0,29.05,West,269,7.0,13.0,37,0.00,,,0.00,weatherlink.com 1.10,2013-08-31 21:12:00,
2013-08-31 16:27:00,100.7,70.0,29.05,West,259,5.0,15.0,37,0.00,,,0.00,weatherlink.com 1.10,2013-08-31 21:27:00,
2013-08-31 16:42:00,100.1,70.0,29.05,West,266,7.0,13.0,38,0.00,,,0.00,weatherlink.com 1.10,2013-08-31 21:42:00,
2013-08-31 16:57:00,99.9,71.0,29.04,SW,221,4.0,12.0,39,0.00,,,0.00,weatherlink.com 1.10,2013-08-31 21:57:00,
2013-08-31 17:12:00,100.1,70.0,29.04,West,266,11.0,18.0,38,0.00,,,0.00,weatherlink.com 1.10,2013-08-31 22:12:00,
2013-08-31 17:27:00,99.9,70.0,29.04,SSE,162,7.0,16.0,38,0.00,,,0.00,weatherlink.com 1.10,2013-08-31 22:27:00,
2013-08-31 17:42:00,99.6,71.0,29.03,WSW,249,5.0,14.0,39,0.00,,,0.00,weatherlink.com 1.10,2013-08-31 22:42:00,
2013-08-31 17:57:00,99.2,70.0,29.03,WSW,239,5.0,14.0,39,0.00,,,0.00,weatherlink.com 1.10,2013-08-31 22:57:00,
2013-08-31 18:13:00,98.5,70.0,29.03,WSW,252,8.0,12.0,40,0.00,,,0.00,weatherlink.com 1.10,2013-08-31 23:13:00,
2013-08-31 18:28:00,97.1,70.0,29.03,NNE,27,7.0,15.0,41,0.00,,,0.00,weatherlink.com 1.10,2013-08-31 23:28:00,
2013-08-31 18:43:00,96.3,70.0,29.03,WSW,241,7.0,13.0,42,0.00,,,0.00,weatherlink.com 1.10,2013-08-31 23:43:00,
2013-08-31 18:58:00,95.5,70.0,29.03,SSW,197,4.0,6.0,44,0.00,,,0.00,weatherlink.com 1.10,2013-08-31 23:58:00,
2013-08-31 19:13:00,94.9,71.0,29.03,SW,225,5.0,9.0,46,0.00,,,0.00,weatherlink.com 1.10,2013-09-01 00:13:00,
2013-08-31 19:28:00,94.4,71.0,29.04,WSW,243,5.0,9.0,46,0.00,,,0.00,weatherlink.com 1.10,2013-09-01 00:28:00,
2013-08-31 19:43:00,94.0,71.0,29.04,SW,231,4.0,6.0,47,0.00,,,0.00,weatherlink.com 1.10,2013-09-01 00:43:00,
2013-08-31 19:58:00,91.7,67.0,29.07,NNW,345,11.0,17.0,45,0.00,,,0.00,weatherlink.com 1.10,2013-09-01 00:58:00,
2013-08-31 20:13:00,85.3,72.0,29.07,SSW,200,8.0,15.0,64,0.02,,,0.02,weatherlink.com 1.10,2013-09-01 01:13:00,
2013-08-31 20:28:00,83.1,74.0,29.08,West,264,4.0,10.0,75,0.02,,,0.02,weatherlink.com 1.10,2013-09-01 01:28:00,
2013-08-31 20:43:00,82.8,75.0,29.08,ESE,108,1.0,4.0,77,0.02,,,0.02,weatherlink.com 1.10,2013-09-01 01:43:00,
2013-08-31 20:58:00,80.0,74.0,29.07,SSW,197,0.0,2.0,83,0.02,,,0.02,weatherlink.com 1.10,2013-09-01 01:58:00,
2013-08-31 21:13:00,79.4,74.0,29.07,ESE,118,1.0,2.0,82,0.00,,,0.02,weatherlink.com 1.10,2013-09-01 02:13:00,
2013-08-31 21:28:00,79.0,72.0,29.07,ESE,117,1.0,3.0,79,0.00,,,0.02,weatherlink.com 1.10,2013-09-01 02:28:00,
2013-08-31 21:43:00,78.7,73.0,29.08,SE,127,1.0,2.0,83,0.00,,,0.02,weatherlink.com 1.10,2013-09-01 02:43:00,
2013-08-31 21:58:00,78.0,73.0,29.08,SE,124,1.0,1.0,83,0.00,,,0.02,weatherlink.com 1.10,2013-09-01 02:58:00,
2013-08-31 22:13:00,77.5,72.0,29.09,ESE,110,0.0,1.0,84,0.00,,,0.02,weatherlink.com 1.10,2013-09-01 03:13:00,
2013-08-31 22:29:00,77.5,73.0,29.09,ESE,120,1.0,1.0,85,0.00,,,0.02,weatherlink.com 1.10,2013-09-01 03:29:00,
2013-08-31 22:43:00,77.3,73.0,29.09,SE,139,0.0,1.0,86,0.00,,,0.02,weatherlink.com 1.10,2013-09-01 03:43:00,
2013-08-31 22:58:00,77.7,73.0,29.10,SE,139,0.0,0.0,86,0.00,,,0.02,weatherlink.com 1.10,2013-09-01 03:58:00,
2013-08-31 23:13:00,80.2,71.0,29.10,NW,320,1.0,5.0,73,0.00,,,0.02,weatherlink.com 1.10,2013-09-01 04:13:00,
2013-08-31 23:28:00,81.3,69.0,29.10,NNW,329,1.0,2.0,67,0.00,,,0.02,weatherlink.com 1.10,2013-09-01 04:28:00,
2013-08-31 23:43:00,80.4,71.0,29.10,West,271,0.0,1.0,74,0.00,,,0.02,weatherlink.com 1.10,2013-09-01 04:43:00,
2013-08-31 23:58:00,78.7,72.0,29.09,SSE,158,0.0,1.0,79,0.00,,,0.02,weatherlink.com 1.10,2013-09-01 04:58:00,